BAW722 RKSS-RKPK
Flight info
| Callsign | BAW722 |
|---|---|
| Flight time | N/A |
| Altitude | 27000 |
| Route | OSPOT2T OSPOT Y782 TGU DCT MASTA KEVOX3 |
| Aircraft | A35K/H-SDE2E3GHIJ3J4J5LM1ORWXY/LB1D1 |
Departure
| Time | 2026-04-29 12:52 |
|---|---|
| Airport | Gimpo International Airport (RKSS) |
Arrival
| Time | N/A |
|---|---|
| Airport | Gimhae International Airport (RKPK) |
| Time | Latitude | Longitude | Altitude | Speed | Heading |
|---|---|---|---|---|---|
| 2026-04-29 12:36 | 37.55881 | 126.80148 | 73 ft | 0 kts | 44° |
| 2026-04-29 12:41 | 37.55879 | 126.80145 | 73 ft | 2 kts | 44° |
| 2026-04-29 12:42 | 37.55867 | 126.80130 | 62 ft | 2 kts | 46° |
| 2026-04-29 12:42 | 37.55856 | 126.80115 | 62 ft | 2 kts | 49° |
| 2026-04-29 12:42 | 37.55846 | 126.80099 | 62 ft | 2 kts | 53° |
| 2026-04-29 12:42 | 37.55837 | 126.80082 | 62 ft | 2 kts | 61° |
| 2026-04-29 12:43 | 37.55830 | 126.80063 | 62 ft | 2 kts | 81° |
| 2026-04-29 12:43 | 37.55832 | 126.80043 | 62 ft | 2 kts | 121° |
| 2026-04-29 12:43 | 37.55837 | 126.80032 | 62 ft | 1 kts | 132° |
| 2026-04-29 12:43 | 37.55838 | 126.80032 | 62 ft | 0 kts | 133° |
| 2026-04-29 12:47 | 37.55832 | 126.80039 | 62 ft | 3 kts | 133° |
| 2026-04-29 12:47 | 37.55804 | 126.80076 | 63 ft | 9 kts | 135° |
| 2026-04-29 12:47 | 37.55747 | 126.80147 | 62 ft | 14 kts | 135° |
| 2026-04-29 12:47 | 37.55677 | 126.80236 | 65 ft | 14 kts | 135° |
| 2026-04-29 12:48 | 37.55625 | 126.80298 | 66 ft | 9 kts | 144° |
| 2026-04-29 12:48 | 37.55556 | 126.80281 | 67 ft | 13 kts | 214° |
| 2026-04-29 12:48 | 37.55480 | 126.80197 | 66 ft | 15 kts | 209° |
| 2026-04-29 12:48 | 37.55389 | 126.80236 | 61 ft | 14 kts | 132° |
| 2026-04-29 12:49 | 37.55309 | 126.80339 | 65 ft | 19 kts | 135° |
| 2026-04-29 12:49 | 37.55216 | 126.80455 | 64 ft | 23 kts | 135° |
| 2026-04-29 12:49 | 37.55138 | 126.80553 | 65 ft | 25 kts | 135° |
| 2026-04-29 12:49 | 37.55035 | 126.80682 | 64 ft | 20 kts | 134° |
| 2026-04-29 12:50 | 37.54959 | 126.80778 | 63 ft | 12 kts | 135° |
| 2026-04-29 12:50 | 37.54899 | 126.80820 | 66 ft | 6 kts | 194° |
| 2026-04-29 12:50 | 37.54864 | 126.80797 | 63 ft | 11 kts | 214° |
| 2026-04-29 12:50 | 37.54809 | 126.80714 | 59 ft | 10 kts | 261° |
| 2026-04-29 12:51 | 37.54833 | 126.80648 | 57 ft | 10 kts | 306° |
| 2026-04-29 12:51 | 37.54887 | 126.80576 | 60 ft | 15 kts | 314° |
| 2026-04-29 12:51 | 37.55301 | 126.80054 | 60 ft | 115 kts | 314° |
| 2026-04-29 12:51 | 37.55759 | 126.79473 | 64 ft | 160 kts | 315° |
| 2026-04-29 12:52 | 37.56600 | 126.78429 | 770 ft | 167 kts | 315° |
| 2026-04-29 12:52 | 37.57383 | 126.77363 | 1713 ft | 171 kts | 311° |
| 2026-04-29 12:52 | 37.58254 | 126.76156 | 2211 ft | 202 kts | 313° |
| 2026-04-29 12:52 | 37.59260 | 126.74802 | 2849 ft | 222 kts | 314° |
| 2026-04-29 12:53 | 37.60358 | 126.73342 | 3596 ft | 240 kts | 315° |
| 2026-04-29 12:53 | 37.61533 | 126.71747 | 4353 ft | 258 kts | 311° |
| 2026-04-29 12:53 | 37.62365 | 126.69696 | 4854 ft | 266 kts | 282° |
| 2026-04-29 12:53 | 37.62234 | 126.67401 | 4991 ft | 267 kts | 249° |
| 2026-04-29 12:54 | 37.61164 | 126.65487 | 4997 ft | 269 kts | 224° |
| 2026-04-29 12:54 | 37.59798 | 126.63872 | 4987 ft | 271 kts | 223° |
| 2026-04-29 12:54 | 37.58332 | 126.62364 | 5092 ft | 273 kts | 212° |
| 2026-04-29 12:54 | 37.56561 | 126.61490 | 5720 ft | 275 kts | 189° |
| 2026-04-29 12:55 | 37.54676 | 126.61637 | 6803 ft | 273 kts | 162° |
| 2026-04-29 12:55 | 37.53034 | 126.62805 | 7892 ft | 272 kts | 141° |
| 2026-04-29 12:55 | 37.51561 | 126.64319 | 8931 ft | 276 kts | 139° |
| 2026-04-29 12:55 | 37.50085 | 126.65893 | 10004 ft | 280 kts | 139° |
| 2026-04-29 12:56 | 37.48562 | 126.67512 | 10702 ft | 297 kts | 139° |
| 2026-04-29 12:56 | 37.46931 | 126.69239 | 11150 ft | 321 kts | 139° |
| 2026-04-29 12:56 | 37.45157 | 126.71110 | 11611 ft | 343 kts | 139° |
| 2026-04-29 12:56 | 37.43294 | 126.73069 | 12345 ft | 353 kts | 139° |
| 2026-04-29 12:57 | 37.41385 | 126.75073 | 13280 ft | 359 kts | 139° |
| 2026-04-29 12:57 | 37.39456 | 126.77097 | 14191 ft | 364 kts | 140° |
| 2026-04-29 12:57 | 37.37487 | 126.79160 | 14932 ft | 372 kts | 140° |
| 2026-04-29 12:57 | 37.35475 | 126.81266 | 15619 ft | 380 kts | 141° |
| 2026-04-29 12:58 | 37.33414 | 126.83423 | 16290 ft | 389 kts | 142° |
| 2026-04-29 12:58 | 37.31307 | 126.85625 | 16985 ft | 397 kts | 142° |
| 2026-04-29 12:58 | 37.29189 | 126.87837 | 17697 ft | 405 kts | 143° |
| 2026-04-29 12:58 | 37.27008 | 126.90115 | 18406 ft | 412 kts | 143° |
| 2026-04-29 12:59 | 37.24784 | 126.92434 | 19006 ft | 419 kts | 143° |
| 2026-04-29 12:59 | 37.22502 | 126.94813 | 19678 ft | 423 kts | 144° |
| 2026-04-29 12:59 | 37.20262 | 126.97148 | 20338 ft | 428 kts | 144° |
| 2026-04-29 12:59 | 37.17943 | 126.99562 | 21006 ft | 433 kts | 144° |
| 2026-04-29 13:00 | 37.15602 | 127.01996 | 21663 ft | 440 kts | 144° |
| 2026-04-29 13:00 | 37.13237 | 127.04454 | 22325 ft | 445 kts | 144° |
| 2026-04-29 13:00 | 37.10840 | 127.06943 | 23008 ft | 450 kts | 145° |
| 2026-04-29 13:00 | 37.08413 | 127.09461 | 23684 ft | 455 kts | 145° |
| 2026-04-29 13:01 | 37.05952 | 127.12012 | 24248 ft | 460 kts | 146° |
| 2026-04-29 13:01 | 37.03482 | 127.14570 | 24826 ft | 464 kts | 146° |
| 2026-04-29 13:01 | 37.01014 | 127.17127 | 25505 ft | 465 kts | 147° |
| 2026-04-29 13:01 | 36.98517 | 127.19709 | 26121 ft | 468 kts | 148° |
| 2026-04-29 13:02 | 36.95991 | 127.22316 | 26677 ft | 473 kts | 148° |
| 2026-04-29 13:02 | 36.93446 | 127.24941 | 27018 ft | 475 kts | 148° |
| 2026-04-29 13:02 | 36.90868 | 127.27596 | 27115 ft | 486 kts | 149° |
| 2026-04-29 13:02 | 36.88215 | 127.30318 | 27128 ft | 503 kts | 148° |
| 2026-04-29 13:03 | 36.85509 | 127.33103 | 27124 ft | 507 kts | 148° |
| 2026-04-29 13:03 | 36.82833 | 127.36013 | 27127 ft | 510 kts | 145° |
| 2026-04-29 13:03 | 36.80250 | 127.39060 | 27131 ft | 512 kts | 143° |
| 2026-04-29 13:03 | 36.77708 | 127.42189 | 27129 ft | 512 kts | 142° |
| 2026-04-29 13:04 | 36.75195 | 127.45330 | 27131 ft | 513 kts | 142° |
| 2026-04-29 13:04 | 36.72671 | 127.48487 | 27113 ft | 513 kts | 142° |
| 2026-04-29 13:04 | 36.70152 | 127.51624 | 27118 ft | 512 kts | 142° |
| 2026-04-29 13:04 | 36.67622 | 127.54757 | 27116 ft | 512 kts | 143° |
| 2026-04-29 13:05 | 36.65085 | 127.57871 | 27117 ft | 511 kts | 143° |
| 2026-04-29 13:05 | 36.62546 | 127.60972 | 27115 ft | 511 kts | 143° |
| 2026-04-29 13:05 | 36.60038 | 127.64028 | 27116 ft | 511 kts | 143° |
| 2026-04-29 13:05 | 36.57485 | 127.67135 | 27116 ft | 511 kts | 143° |
| 2026-04-29 13:06 | 36.54939 | 127.70232 | 27115 ft | 511 kts | 143° |
| 2026-04-29 13:06 | 36.52391 | 127.73332 | 27109 ft | 511 kts | 143° |
| 2026-04-29 13:06 | 36.49848 | 127.76423 | 27113 ft | 512 kts | 143° |
| 2026-04-29 13:06 | 36.47294 | 127.79524 | 27113 ft | 512 kts | 143° |
| 2026-04-29 13:07 | 36.44744 | 127.82620 | 27109 ft | 513 kts | 143° |
| 2026-04-29 13:07 | 36.42225 | 127.85674 | 27112 ft | 512 kts | 143° |
| 2026-04-29 13:07 | 36.39673 | 127.88768 | 27109 ft | 512 kts | 143° |
| 2026-04-29 13:07 | 36.37124 | 127.91857 | 27114 ft | 512 kts | 143° |
| 2026-04-29 13:08 | 36.34537 | 127.94988 | 27108 ft | 512 kts | 143° |
| 2026-04-29 13:08 | 36.32019 | 127.98031 | 27108 ft | 514 kts | 143° |
| 2026-04-29 13:08 | 36.29452 | 128.01128 | 27110 ft | 515 kts | 143° |
| 2026-04-29 13:08 | 36.26886 | 128.04228 | 27110 ft | 516 kts | 143° |
| 2026-04-29 13:09 | 36.24311 | 128.07339 | 27110 ft | 516 kts | 143° |
| 2026-04-29 13:09 | 36.21729 | 128.10446 | 27120 ft | 516 kts | 143° |
| 2026-04-29 13:09 | 36.19163 | 128.13528 | 27122 ft | 512 kts | 143° |
| 2026-04-29 13:09 | 36.16661 | 128.16546 | 27122 ft | 493 kts | 143° |
| 2026-04-29 13:10 | 36.14255 | 128.19457 | 27103 ft | 473 kts | 144° |
| 2026-04-29 13:10 | 36.11941 | 128.22254 | 27120 ft | 455 kts | 144° |
| 2026-04-29 13:10 | 36.09722 | 128.24928 | 27117 ft | 437 kts | 145° |
| 2026-04-29 13:10 | 36.07581 | 128.27500 | 27123 ft | 419 kts | 146° |
| 2026-04-29 13:11 | 36.05529 | 128.29959 | 27127 ft | 403 kts | 146° |
| 2026-04-29 13:11 | 36.03557 | 128.32316 | 27129 ft | 386 kts | 147° |
| 2026-04-29 13:11 | 36.01667 | 128.34575 | 27129 ft | 369 kts | 147° |
| 2026-04-29 13:11 | 35.99871 | 128.36716 | 27112 ft | 359 kts | 148° |
| 2026-04-29 13:12 | 35.98073 | 128.38842 | 27141 ft | 356 kts | 148° |
| 2026-04-29 13:12 | 35.96285 | 128.40950 | 27141 ft | 354 kts | 148° |
| 2026-04-29 13:12 | 35.94506 | 128.43046 | 27139 ft | 353 kts | 148° |
| 2026-04-29 13:12 | 35.92729 | 128.45145 | 27155 ft | 353 kts | 148° |
| 2026-04-29 13:13 | 35.90947 | 128.47253 | 27153 ft | 353 kts | 148° |
| 2026-04-29 13:13 | 35.89195 | 128.49329 | 27156 ft | 354 kts | 148° |
| 2026-04-29 13:13 | 35.87423 | 128.51430 | 27154 ft | 354 kts | 148° |
| 2026-04-29 13:13 | 35.85649 | 128.53536 | 27149 ft | 354 kts | 148° |
| 2026-04-29 13:14 | 35.83863 | 128.55620 | 27144 ft | 350 kts | 152° |
| 2026-04-29 13:14 | 35.81923 | 128.57323 | 27121 ft | 333 kts | 164° |
| 2026-04-29 13:14 | 35.79850 | 128.58377 | 27029 ft | 313 kts | 178° |
| 2026-04-29 13:14 | 35.77770 | 128.58734 | 26725 ft | 294 kts | 192° |
| 2026-04-29 13:15 | 35.75752 | 128.58639 | 26399 ft | 289 kts | 195° |
| 2026-04-29 13:15 | 35.73728 | 128.58723 | 25842 ft | 299 kts | 181° |
| 2026-04-29 13:15 | 35.71689 | 128.59442 | 25174 ft | 308 kts | 172° |
| 2026-04-29 13:15 | 35.69665 | 128.60400 | 24430 ft | 318 kts | 167° |
| 2026-04-29 13:16 | 35.67810 | 128.62058 | 23729 ft | 343 kts | 142° |
| 2026-04-29 13:16 | 35.66478 | 128.64565 | 22948 ft | 358 kts | 122° |
| 2026-04-29 13:16 | 35.65780 | 128.67492 | 22227 ft | 367 kts | 100° |
| 2026-04-29 13:16 | 35.65938 | 128.70633 | 21519 ft | 369 kts | 77° |
| 2026-04-29 13:17 | 35.66935 | 128.73536 | 20605 ft | 371 kts | 53° |
| 2026-04-29 13:17 | 35.68669 | 128.75780 | 19981 ft | 355 kts | 31° |
| 2026-04-29 13:17 | 35.70821 | 128.77060 | 19385 ft | 336 kts | 9° |
| 2026-04-29 13:17 | 35.73097 | 128.77298 | 18548 ft | 325 kts | 348° |
| 2026-04-29 13:18 | 35.75200 | 128.76469 | 17593 ft | 315 kts | 326° |
| 2026-04-29 13:18 | 35.76862 | 128.74743 | 16387 ft | 315 kts | 305° |
| 2026-04-29 13:18 | 35.77834 | 128.72336 | 15262 ft | 316 kts | 282° |
| 2026-04-29 13:18 | 35.77947 | 128.69655 | 14270 ft | 314 kts | 261° |
| 2026-04-29 13:19 | 35.77582 | 128.67015 | 13241 ft | 312 kts | 262° |
| 2026-04-29 13:19 | 35.77061 | 128.64422 | 12109 ft | 313 kts | 248° |
| 2026-04-29 13:19 | 35.75965 | 128.62117 | 11047 ft | 313 kts | 229° |
| 2026-04-29 13:19 | 35.74335 | 128.60418 | 10057 ft | 311 kts | 208° |
| 2026-04-29 13:20 | 35.72324 | 128.59506 | 9083 ft | 305 kts | 189° |
| 2026-04-29 13:20 | 35.70292 | 128.59167 | 8670 ft | 284 kts | 185° |
| 2026-04-29 13:20 | 35.68406 | 128.58917 | 8403 ft | 263 kts | 185° |
| 2026-04-29 13:20 | 35.66642 | 128.58678 | 8129 ft | 246 kts | 185° |
| 2026-04-29 13:21 | 35.64990 | 128.58452 | 7856 ft | 231 kts | 185° |
| 2026-04-29 13:21 | 35.63437 | 128.58240 | 7589 ft | 220 kts | 185° |
| 2026-04-29 13:21 | 35.61917 | 128.58031 | 7345 ft | 219 kts | 185° |
| 2026-04-29 13:21 | 35.60399 | 128.57823 | 7094 ft | 219 kts | 185° |
| 2026-04-29 13:22 | 35.58889 | 128.57499 | 6850 ft | 221 kts | 191° |
| 2026-04-29 13:22 | 35.57390 | 128.57129 | 6633 ft | 219 kts | 188° |
| 2026-04-29 13:22 | 35.55877 | 128.56867 | 6462 ft | 220 kts | 187° |
| 2026-04-29 13:22 | 35.54374 | 128.56760 | 6369 ft | 219 kts | 179° |
| 2026-04-29 13:23 | 35.52849 | 128.56654 | 6319 ft | 220 kts | 182° |
| 2026-04-29 13:23 | 35.51338 | 128.56420 | 6253 ft | 218 kts | 189° |
| 2026-04-29 13:23 | 35.49848 | 128.56043 | 6174 ft | 218 kts | 189° |
| 2026-04-29 13:23 | 35.48347 | 128.55884 | 6081 ft | 216 kts | 175° |
| 2026-04-29 13:24 | 35.46880 | 128.56210 | 6012 ft | 213 kts | 163° |
| 2026-04-29 13:24 | 35.45441 | 128.56678 | 5998 ft | 213 kts | 163° |
| 2026-04-29 13:24 | 35.43999 | 128.57129 | 5994 ft | 213 kts | 164° |
| 2026-04-29 13:24 | 35.42557 | 128.57558 | 5991 ft | 213 kts | 165° |
| 2026-04-29 13:25 | 35.41110 | 128.57974 | 5983 ft | 213 kts | 165° |
| 2026-04-29 13:25 | 35.38239 | 128.58779 | 6000 ft | 213 kts | 165° |
| 2026-04-29 13:25 | 35.36767 | 128.59188 | 5995 ft | 214 kts | 165° |
| 2026-04-29 13:26 | 35.35332 | 128.59585 | 5991 ft | 214 kts | 165° |
| 2026-04-29 13:26 | 35.33882 | 128.59986 | 5987 ft | 214 kts | 165° |
| 2026-04-29 13:26 | 35.32433 | 128.60386 | 6001 ft | 213 kts | 165° |
| 2026-04-29 13:26 | 35.30982 | 128.60786 | 5996 ft | 214 kts | 165° |
| 2026-04-29 13:27 | 35.29533 | 128.61185 | 5992 ft | 213 kts | 165° |
| 2026-04-29 13:27 | 35.28093 | 128.61615 | 5988 ft | 213 kts | 162° |
| 2026-04-29 13:27 | 35.26691 | 128.62202 | 5996 ft | 212 kts | 155° |
| 2026-04-29 13:27 | 35.25366 | 128.62986 | 5992 ft | 211 kts | 148° |
| 2026-04-29 13:28 | 35.24136 | 128.63955 | 5969 ft | 210 kts | 141° |
| 2026-04-29 13:28 | 35.22996 | 128.65107 | 5642 ft | 213 kts | 134° |
| 2026-04-29 13:28 | 35.22004 | 128.66399 | 5391 ft | 208 kts | 128° |
| 2026-04-29 13:28 | 35.21148 | 128.67813 | 5110 ft | 205 kts | 121° |
| 2026-04-29 13:29 | 35.20446 | 128.69319 | 4993 ft | 204 kts | 114° |
| 2026-04-29 13:29 | 35.19886 | 128.70916 | 4989 ft | 204 kts | 108° |
| 2026-04-29 13:29 | 35.19476 | 128.72581 | 4868 ft | 205 kts | 102° |
| 2026-04-29 13:29 | 35.19228 | 128.74306 | 4504 ft | 205 kts | 95° |
| 2026-04-29 13:30 | 35.19149 | 128.76027 | 4265 ft | 201 kts | 89° |
| 2026-04-29 13:30 | 35.19230 | 128.77731 | 3967 ft | 200 kts | 84° |
| 2026-04-29 13:30 | 35.19467 | 128.79414 | 3627 ft | 202 kts | 78° |
| 2026-04-29 13:30 | 35.19866 | 128.81075 | 3309 ft | 203 kts | 72° |
| 2026-04-29 13:31 | 35.20416 | 128.82663 | 3038 ft | 202 kts | 65° |
| 2026-04-29 13:31 | 35.21111 | 128.84162 | 2991 ft | 203 kts | 59° |
| 2026-04-29 13:31 | 35.21943 | 128.85563 | 3001 ft | 204 kts | 52° |
| 2026-04-29 13:31 | 35.22864 | 128.86848 | 2990 ft | 204 kts | 48° |
| 2026-04-29 13:32 | 35.23840 | 128.88138 | 2997 ft | 204 kts | 48° |
| 2026-04-29 13:32 | 35.24792 | 128.89407 | 2997 ft | 205 kts | 50° |
| 2026-04-29 13:32 | 35.25491 | 128.90878 | 2876 ft | 198 kts | 77° |
| 2026-04-29 13:32 | 35.25550 | 128.91825 | 2697 ft | 195 kts | 98° |
| 2026-04-29 13:33 | 35.25036 | 128.93237 | 2383 ft | 193 kts | 133° |
| 2026-04-29 13:34 | 35.23927 | 128.94057 | 2210 ft | 183 kts | 165° |
| 2026-04-29 13:34 | 35.22702 | 128.94014 | 1870 ft | 177 kts | 193° |
| 2026-04-29 13:34 | 35.21531 | 128.93403 | 1036 ft | 191 kts | 200° |
| 2026-04-29 13:34 | 35.20250 | 128.93207 | 620 ft | 180 kts | 173° |
| 2026-04-29 13:35 | 35.19045 | 128.93528 | 146 ft | 175 kts | 163° |
| 2026-04-29 13:35 | 35.17927 | 128.93668 | 51 ft | 151 kts | 205° |